Latest Coastal Weather Observations for Bunbury

IDW60701

Issued at 4:23 am WST Wednesday 23 August 2017 (issued every 10 minutes, with the page automatically refreshed every 10 minutes)

About coastal observations | Map of coastal stations | Coastal observations for WA | Marine services | Other Formats
Station Details ID: 009965 Name: BUNBURY Lat: -33.36 Lon: 115.64 Height: 5.2 m
Data from the previous 72 hours. | See also: Recent months at Bunbury
Date/Time
WST
Temp
°C
Wind Pressure Rain since
9am
mm
Weather Cloud Vis
km
Sea
Height
m
Swell
Dir  Spd
kts
Gust
kts
hPa Trend Height
m
Period
s
Dir
23/04:00am 5.9 SSW 2 3 1026.8 - 0.2 - - - - - - -
23/03:30am 6.3 SSW 3 4 1026.7 - 0.2 - - - - - - -
23/03:00am 6.1 SSW 1 2 1026.8 - 0.2 - - - - - - -
23/02:30am 6.6 SSW 4 4 1026.8 - 0.2 - - - - - - -
23/02:00am 6.8 SSW 3 4 1027.0 - 0.2 - - - - - - -
23/01:30am 6.8 SW 2 2 1027.1 - 0.2 - - - - - - -
23/01:00am 7.2 SSW 3 3 1027.0 - 0.0 - - - - - - -
23/12:30am 7.4 SSW 3 4 1026.9 - 0.0 - - - - - - -
23/12:00am 7.6 SSW 3 3 1026.8 - 0.0 - - - - - - -
 
Date/Time
WST
Temp
°C
Wind Pressure Rain since
9am
mm
Weather Cloud Vis
km
Sea
Height
m
Swell
Dir  Spd
kts
Gust
kts
hPa Trend Height
m
Period
s
Dir
22/11:30pm 8.3 SSW 3 4 1026.8 - 0.0 - - - - - - -
22/11:00pm 8.6 S 3 3 1026.6 - 0.0 - - - - - - -
22/10:30pm 8.9 SSW 3 3 1026.6 - 0.0 - - - - - - -
22/10:00pm 9.3 SE 3 4 1026.5 - 0.0 - - - - - - -
22/09:30pm 10.2 S 3 5 1026.3 - 0.0 - - - - - - -
22/09:00pm 10.9 S 4 5 1025.9 - 0.0 - - - - - - -
22/08:30pm 11.1 S 5 7 1025.5 - 0.0 - - - - - - -
22/08:00pm 11.8 S 5 7 1025.2 - 0.0 - - - - - - -
22/07:30pm 12.6 S 6 10 1024.7 - 0.0 - - - - - - -
22/07:00pm 12.9 S 6 9 1024.1 - 0.0 - - - - - - -
22/06:30pm 13.3 S 4 5 1023.7 - 0.0 - - - - - - -
22/06:00pm 14.2 SSW 5 8 1023.3 - 0.0 - - - - - - -
22/05:30pm 15.1 WSW 2 4 1022.9 - 0.0 - - - - - - -
22/05:00pm 16.1 WSW 3 4 1022.5 - 0.0 - - - - - - -
22/04:30pm 16.3 W 4 6 1022.1 - 0.0 - - - - - - -
22/04:00pm 16.0 SSW 4 9 1022.0 - 0.0 - - - - - - -
22/03:30pm 15.6 S 6 8 1021.9 - 0.0 - - - - - - -
22/03:00pm 16.1 SSE 5 7 1021.7 - 0.0 - - - - - - -
22/02:30pm 15.2 SSE 3 6 1021.6 - 0.0 - - - - - - -
22/02:00pm 14.0 S 6 11 1021.6 - 0.0 - - - - - - -
22/01:30pm 15.3 S 9 17 1021.4 - 0.0 - - - - - - -
22/01:00pm 16.9 S 4 7 1021.3 - 0.0 - - - - - - -
22/12:30pm 16.3 WSW 3 5 1021.7 - 0.0 - - - - - - -
22/12:00pm 15.8 W 3 5 1022.0 - 0.0 - - - - - - -
22/11:30am 14.7 SW 6 8 1022.2 - 0.0 - - - - - - -
22/11:00am 15.6 SSW 8 12 1022.1 - 0.0 - - - - - - -
22/10:30am 15.1 W 3 5 1022.1 - 0.0 - - - - - - -
22/10:00am 15.6 W 5 7 1022.0 - 0.0 - - - - - - -
22/09:30am 14.9 NNE 3 4 1021.7 - 0.0 - - - - - - -
22/09:00am 13.5 NNE 3 4 1021.6 - 0.2 - - - - - - -
22/08:30am 12.3 NE 2 3 1021.4 - 0.2 - - - - - - -
22/08:00am 10.6 ENE 2 3 1021.3 - 0.2 - - - - - - -
22/07:30am 8.3 ENE 2 2 1021.0 - 0.2 - - - - - - -
22/07:00am 8.7 S 3 4 1020.9 - 0.2 - - - - - - -
22/06:30am 6.4 CALM 0 0 1020.6 - 0.2 - - - - - - -
22/06:00am 7.3 CALM 0 0 1020.3 - 0.2 - - - - - - -
22/05:30am 7.1 CALM 0 0 1020.0 - 0.2 - - - - - - -
22/05:00am 7.2 CALM 0 0 1020.0 - 0.2 - - - - - - -
22/04:30am 8.5 CALM 0 0 1019.8 - 0.2 - - - - - - -
22/04:00am 9.1 E 2 3 1019.8 - 0.2 - - - - - - -
22/03:30am 10.1 ESE 2 2 1019.8 - 0.2 - - - - - - -
22/03:00am 10.4 SSW 1 3 1020.0 - 0.2 - - - - - - -
22/02:30am 10.1 ENE 3 4 1020.0 - 0.2 - - - - - - -
22/02:00am 10.3 CALM 0 0 1020.3 - 0.2 - - - - - - -
22/01:30am 9.1 CALM 0 0 1020.3 - 0.2 - - - - - - -
22/01:00am 10.6 CALM 0 0 1020.6 - 0.2 - - - - - - -
22/12:30am 11.3 NNE 2 2 1020.5 - 0.2 - - - - - - -
22/12:00am 10.9 N 3 4 1020.8 - 0.2 - - - - - - -
 
Date/Time
WST
Temp
°C
Wind Pressure Rain since
9am
mm
Weather Cloud Vis
km
Sea
Height
m
Swell
Dir  Spd
kts
Gust
kts
hPa Trend Height
m
Period
s
Dir
21/11:30pm 11.9 SSW 3 8 1020.7 - 0.2 - - - - - - -
21/11:00pm 11.7 SE 2 3 1020.9 - 0.2 - - - - - - -
21/10:30pm 12.2 S 2 3 1021.2 - 0.2 - - - - - - -
21/10:00pm 12.3 WSW 1 2 1021.4 - 0.2 - - - - - - -
21/09:30pm 12.1 SSW 4 7 1021.5 - 0.2 - - - - - - -
21/09:00pm 13.3 WSW 8 14 1021.2 - 0.2 - - - - - - -
21/08:30pm 13.9 WNW 2 4 1020.7 - 0.2 - - - - - - -
21/08:00pm 13.6 WNW 2 3 1020.6 - 0.2 - - - - - - -
21/07:30pm 13.9 WSW 1 2 1020.4 - 0.2 - - - - - - -
21/07:00pm 14.2 SW 4 7 1020.2 - 0.2 - - - - - - -
21/06:30pm 13.7 WSW 5 7 1020.1 - 0.2 - - - - - - -
21/06:00pm 13.8 WSW 5 9 1020.0 - 0.2 - - - - - - -
21/05:30pm 14.7 WSW 5 9 1019.8 - 0.2 - - - - - - -
21/05:00pm 14.8 WSW 6 9 1019.6 - 0.2 - - - - - - -
21/04:30pm 14.8 W 7 11 1019.5 - 0.2 - - - - - - -
21/04:00pm 15.2 W 6 9 1019.5 - 0.2 - - - - - - -
21/03:30pm 15.6 W 8 12 1019.6 - 0.2 - - - - - - -
21/03:00pm 15.7 WNW 9 13 1019.8 - 0.2 - - - - - - -
21/02:30pm 15.9 W 8 11 1019.7 - 0.2 - - - - - - -
21/02:00pm 16.5 W 8 11 1019.9 - 0.2 - - - - - - -
21/01:30pm 16.2 WNW 10 14 1020.1 - 0.2 - - - - - - -
21/01:00pm 15.8 W 9 14 1020.6 - 0.0 - - - - - - -
21/12:30pm 15.5 WSW 8 13 1021.0 - 0.0 - - - - - - -
21/12:00pm 15.2 WSW 6 10 1021.6 - 0.0 - - - - - - -
21/11:30am 14.9 WSW 8 12 1021.8 - 0.0 - - - - - - -
21/11:00am 14.9 WSW 9 17 1022.2 - 0.0 - - - - - - -
21/10:30am 14.5 WSW 9 14 1022.5 - 0.0 - - - - - - -
21/10:00am 14.4 WSW 10 15 1022.5 - 0.0 - - - - - - -
21/09:30am 14.1 WSW 3 7 1022.4 - 0.0 - - - - - - -
21/09:00am 12.5 SSW 4 6 1022.4 - 0.8 - - - - - - -
21/08:30am 12.0 WSW 10 17 1022.6 - 0.8 - - - - - - -
21/08:00am 12.4 SW 8 12 1022.4 - 0.8 - - - - - - -
21/07:30am 12.7 WSW 4 8 1021.9 - 0.8 - - - - - - -
21/07:00am 12.6 WSW 8 14 1021.8 - 0.8 - - - - - - -
21/06:30am 11.5 SSW 3 6 1021.6 - 0.8 - - - - - - -
21/06:00am 10.9 NNE 1 2 1021.5 - 0.8 - - - - - - -
21/05:30am 11.0 ENE 1 2 1021.5 - 0.8 - - - - - - -
21/05:00am 10.7 CALM 0 0 1021.6 - 0.8 - - - - - - -
21/04:30am 10.4 ESE 2 2 1021.5 - 0.8 - - - - - - -
21/04:00am 11.2 CALM 0 0 1021.7 - 0.8 - - - - - - -
21/03:30am 11.2 ENE 2 3 1021.7 - 0.2 - - - - - - -
21/03:00am 11.2 SSE 1 2 1021.9 - 0.2 - - - - - - -
21/02:30am 11.8 SSW 4 6 1022.2 - 0.2 - - - - - - -
21/02:00am 10.7 NE 1 3 1022.4 - 0.2 - - - - - - -
21/01:30am 11.3 S 3 4 1022.3 - 0.2 - - - - - - -
21/01:00am 12.3 SW 5 8 1022.4 - 0.2 - - - - - - -
21/12:30am 11.6 S 1 2 1022.6 - 0.2 - - - - - - -
21/12:00am 12.6 WSW 3 6 1022.8 - 0.2 - - - - - - -
 
Date/Time
WST
Temp
°C
Wind Pressure Rain since
9am
mm
Weather Cloud Vis
km
Sea
Height
m
Swell
Dir  Spd
kts
Gust
kts
hPa Trend Height
m
Period
s
Dir
20/11:30pm 12.7 WNW 2 4 1022.9 - 0.2 - - - - - - -
20/11:00pm 12.1 WNW 5 9 1023.2 - 0.2 - - - - - - -
20/10:30pm 12.4 SW 2 3 1023.3 - 0.2 - - - - - - -
20/10:00pm 13.1 WSW 4 7 1023.4 - 0.2 - - - - - - -
20/09:30pm 13.5 SW 5 8 1023.5 - 0.2 - - - - - - -
20/09:00pm 13.2 SW 4 7 1023.7 - 0.2 - - - - - - -
20/08:30pm 13.2 W 5 8 1023.6 - 0.2 - - - - - - -
20/08:00pm 13.6 WSW 2 4 1023.6 - 0.2 - - - - - - -
20/07:30pm 13.6 WSW 4 6 1023.5 - 0.2 - - - - - - -
20/07:00pm 13.3 WSW 5 9 1023.4 - 0.2 - - - - - - -
20/06:30pm 13.5 WSW 5 8 1023.2 - 0.2 - - - - - - -
20/06:00pm 13.3 WSW 3 5 1023.2 - 0.2 - - - - - - -
20/05:30pm 13.3 WSW 6 10 1023.2 - 0.2 - - - - - - -
20/05:00pm 13.8 W 7 11 1023.1 - 0.2 - - - - - - -
20/04:30pm 14.6 W 8 12 1023.0 - 0.2 - - - - - - -
20/04:00pm 14.9 W 7 10 1023.0 - 0.2 - - - - - - -
20/03:30pm 15.2 WNW 7 10 1023.2 - 0.2 - - - - - - -
20/03:00pm 15.8 W 6 9 1023.2 - 0.2 - - - - - - -
20/02:30pm 15.8 W 7 10 1023.4 - 0.2 - - - - - - -
20/02:00pm 15.5 W 6 8 1023.5 - 0.2 - - - - - - -
20/01:30pm 16.3 W 6 11 1023.7 - 0.2 - - - - - - -
20/01:00pm 15.1 SW 4 7 1024.0 - 0.0 - - - - - - -
20/12:30pm 14.9 W 5 7 1024.7 - 0.0 - - - - - - -
20/12:00pm 15.2 WSW 5 9 1025.2 - 0.0 - - - - - - -
20/11:30am 14.7 SSW 3 5 1025.7 - 0.0 - - - - - - -
20/11:00am 14.1 SW 4 6 1026.0 - 0.0 - - - - - - -
20/10:30am 14.3 SW 5 9 1026.0 - 0.0 - - - - - - -
20/10:00am 13.8 SW 4 7 1025.8 - 0.0 - - - - - - -
20/09:30am 12.9 S 4 5 1025.7 - 0.0 - - - - - - -
20/09:00am 12.6 SSW 4 6 1025.6 - 0.2 - - - - - - -
20/08:30am 11.9 S 3 4 1025.6 - 0.2 - - - - - - -
20/08:00am 11.3 SSW 2 3 1025.4 - 0.2 - - - - - - -
20/07:30am 10.6 S 2 3 1024.9 - 0.2 - - - - - - -
20/07:00am 10.1 SSE 3 5 1024.5 - 0.2 - - - - - - -
20/06:30am 10.2 CALM 0 0 1024.3 - 0.2 - - - - - - -
20/06:00am 10.2 CALM 0 0 1024.1 - 0.2 - - - - - - -
20/05:30am 10.4 CALM 0 0 1023.9 - 0.2 - - - - - - -
20/05:00am 10.3 CALM 0 1 1023.7 - 0.2 - - - - - - -
20/04:30am 10.3 S 1 2 1023.5 - 0.2 - - - - - - -

Other Formats:

Comma delimited format used in spreadsheet applications
http://www.bom.gov.au/fwo/IDW60701/IDW60701.94604.axf

JavaScript Object Notation format (JSON) in row-major order
http://www.bom.gov.au/fwo/IDW60701/IDW60701.94604.json